Time;durP1;ratioP1;P1;durP2;ratioP2;P2;SDS_P1;SDS_P2;PMS_P1;PMS_P2;Temp;Humidity;BMP_temperature;BMP_pressure;BME280_temperature;BME280_humidity;BME280_pressure;Samples;Min_cycle;Max_cycle;Signal;HPM_P1;HPM_P2
2022/07/07 00:00:46;;;;;;;0.95;0.77;;;;;;;;;;5100562;28;20204;-58
2022/07/07 00:03:14;;;;;;;0.70;0.70;;;;;;;;;;5100727;28;20257;-58
2022/07/07 00:05:43;;;;;;;1.38;0.80;;;;;;;;;;5100250;28;20590;-58
2022/07/07 00:08:11;;;;;;;0.98;0.93;;;;;;;;;;5100193;28;20219;-59
2022/07/07 00:10:39;;;;;;;1.40;0.82;;;;;;;;;;5100548;28;20215;-59
2022/07/07 00:13:06;;;;;;;0.70;0.70;;;;;;;;;;5100666;28;20203;-59
2022/07/07 00:15:34;;;;;;;0.82;0.70;;;;;;;;;;5100100;28;20599;-58
2022/07/07 00:18:02;;;;;;;1.52;0.80;;;;;;;;;;5099993;28;20223;-59
2022/07/07 00:20:30;;;;;;;0.80;0.80;;;;;;;;;;5099658;28;20272;-61
2022/07/07 00:23:00;;;;;;;1.27;0.70;;;;;;;;;;5100132;28;20303;-59
2022/07/07 00:25:28;;;;;;;1.05;0.70;;;;;;;;;;5099928;28;20235;-58
2022/07/07 00:27:56;;;;;;;2.35;0.88;;;;;;;;;;5099826;28;20237;-60
2022/07/07 00:30:24;;;;;;;1.58;0.70;;;;;;;;;;5099819;28;20269;-58
2022/07/07 00:32:51;;;;;;;1.00;0.90;;;;;;;;;;5100055;28;20214;-58
2022/07/07 00:35:19;;;;;;;1.00;0.68;;;;;;;;;;5099526;28;20243;-59
2022/07/07 00:37:46;;;;;;;1.38;0.80;;;;;;;;;;5099661;28;20672;-58
2022/07/07 00:40:15;;;;;;;1.52;0.80;;;;;;;;;;5099640;28;20265;-59
2022/07/07 00:42:43;;;;;;;0.98;0.80;;;;;;;;;;5099875;28;20204;-58
2022/07/07 00:45:11;;;;;;;1.30;0.82;;;;;;;;;;5099066;28;20290;-58
2022/07/07 00:47:40;;;;;;;1.08;0.98;;;;;;;;;;5099265;28;20227;-58
2022/07/07 00:50:08;;;;;;;2.05;0.70;;;;;;;;;;5099397;28;20286;-59
2022/07/07 00:52:36;;;;;;;1.45;0.73;;;;;;;;;;5099515;28;20231;-59
2022/07/07 00:55:04;;;;;;;1.08;0.77;;;;;;;;;;5099241;28;20203;-58
2022/07/07 00:57:33;;;;;;;1.90;0.95;;;;;;;;;;5099820;28;20235;-58
2022/07/07 01:00:04;;;;;;;1.35;0.90;;;;;;;;;;5099009;28;20285;-57
2022/07/07 01:02:31;;;;;;;1.30;0.60;;;;;;;;;;5099388;28;20463;-59
2022/07/07 01:05:00;;;;;;;1.67;0.95;;;;;;;;;;5099045;28;20211;-59
2022/07/07 01:07:28;;;;;;;0.80;0.68;;;;;;;;;;5099311;28;20229;-58
2022/07/07 01:09:56;;;;;;;1.55;0.90;;;;;;;;;;5099056;28;20247;-59
2022/07/07 01:12:24;;;;;;;1.27;0.90;;;;;;;;;;5099277;28;20265;-59
2022/07/07 01:14:53;;;;;;;2.35;0.98;;;;;;;;;;5098531;28;20246;-58
2022/07/07 01:17:21;;;;;;;1.15;0.80;;;;;;;;;;5098830;28;20227;-58
2022/07/07 01:19:49;;;;;;;0.75;0.70;;;;;;;;;;5098936;28;20204;-59
2022/07/07 01:22:17;;;;;;;1.45;0.80;;;;;;;;;;5099207;28;20211;-59
2022/07/07 01:24:47;;;;;;;1.92;0.88;;;;;;;;;;5098670;28;20210;-58
2022/07/07 01:27:15;;;;;;;0.93;0.57;;;;;;;;;;5098949;28;20282;-58
2022/07/07 01:29:45;;;;;;;1.13;0.80;;;;;;;;;;5098853;28;20254;-59
2022/07/07 01:32:13;;;;;;;1.60;0.90;;;;;;;;;;5098852;28;20204;-57
2022/07/07 01:34:41;;;;;;;2.05;0.63;;;;;;;;;;5098705;28;20203;-66
2022/07/07 01:37:09;;;;;;;1.40;0.65;;;;;;;;;;5098421;28;20223;-61
2022/07/07 01:39:38;;;;;;;1.00;0.90;;;;;;;;;;5098523;28;20269;-58
2022/07/07 01:42:07;;;;;;;1.25;0.80;;;;;;;;;;5098976;28;20212;-58
2022/07/07 01:44:35;;;;;;;0.70;0.70;;;;;;;;;;5098666;28;20257;-58
2022/07/07 01:47:03;;;;;;;0.88;0.88;;;;;;;;;;5098446;28;20231;-59
2022/07/07 01:49:31;;;;;;;0.90;0.80;;;;;;;;;;5099105;28;20203;-58
2022/07/07 01:51:59;;;;;;;1.27;0.80;;;;;;;;;;5098123;28;20259;-58
2022/07/07 01:54:27;;;;;;;1.20;0.77;;;;;;;;;;5098739;28;20282;-59
2022/07/07 01:56:55;;;;;;;1.58;0.82;;;;;;;;;;5097923;28;20228;-58
2022/07/07 01:59:24;;;;;;;1.10;0.90;;;;;;;;;;5098366;28;20203;-58
2022/07/07 02:01:52;;;;;;;1.02;0.70;;;;;;;;;;5098500;28;20678;-59
2022/07/07 02:04:20;;;;;;;0.95;0.82;;;;;;;;;;5098351;28;20605;-58
2022/07/07 02:06:48;;;;;;;1.05;0.88;;;;;;;;;;5098483;28;20533;-58
2022/07/07 02:09:16;;;;;;;1.08;0.80;;;;;;;;;;5098481;28;20235;-58
2022/07/07 02:11:44;;;;;;;0.80;0.80;;;;;;;;;;5097795;28;20254;-58
2022/07/07 02:14:12;;;;;;;1.27;0.80;;;;;;;;;;5098409;28;20203;-60
2022/07/07 02:16:41;;;;;;;0.82;0.82;;;;;;;;;;5098179;28;20519;-59
2022/07/07 02:19:09;;;;;;;1.75;0.80;;;;;;;;;;5097725;28;20199;-58
2022/07/07 02:21:37;;;;;;;1.13;0.70;;;;;;;;;;5097938;28;20248;-59
2022/07/07 02:24:05;;;;;;;1.40;0.82;;;;;;;;;;5097998;28;20211;-58
2022/07/07 02:26:33;;;;;;;1.17;0.88;;;;;;;;;;5097495;28;20204;-58
2022/07/07 02:29:01;;;;;;;0.77;0.73;;;;;;;;;;5097496;28;20507;-59
2022/07/07 02:31:29;;;;;;;0.80;0.80;;;;;;;;;;5097361;28;20203;-59
2022/07/07 02:33:58;;;;;;;0.80;0.80;;;;;;;;;;5096668;28;20579;-59
2022/07/07 02:36:26;;;;;;;1.10;0.70;;;;;;;;;;5096954;28;20223;-61
2022/07/07 02:38:53;;;;;;;0.80;0.75;;;;;;;;;;5097743;28;20203;-58
2022/07/07 02:41:21;;;;;;;1.40;0.90;;;;;;;;;;5097444;28;20570;-57
2022/07/07 02:43:49;;;;;;;1.80;0.90;;;;;;;;;;5097959;28;20704;-57
2022/07/07 02:46:17;;;;;;;0.65;0.65;;;;;;;;;;5097933;28;20211;-58
2022/07/07 02:48:45;;;;;;;1.77;0.70;;;;;;;;;;5097793;28;20282;-59
2022/07/07 02:51:14;;;;;;;0.85;0.80;;;;;;;;;;5097080;28;20582;-60
2022/07/07 02:53:42;;;;;;;2.00;0.90;;;;;;;;;;5097009;28;20301;-58
2022/07/07 02:56:10;;;;;;;1.27;0.77;;;;;;;;;;5097625;28;20203;-58
2022/07/07 02:58:37;;;;;;;1.88;0.93;;;;;;;;;;5097485;28;20327;-58
2022/07/07 03:01:05;;;;;;;0.98;0.90;;;;;;;;;;5097257;28;20226;-59
2022/07/07 03:03:33;;;;;;;1.08;0.98;;;;;;;;;;5097213;28;20269;-58
2022/07/07 03:06:01;;;;;;;1.75;0.85;;;;;;;;;;5097801;28;20215;-58
2022/07/07 03:08:30;;;;;;;0.90;0.90;;;;;;;;;;5099787;28;20488;-58
2022/07/07 03:10:58;;;;;;;1.25;0.95;;;;;;;;;;5101450;28;20505;-58
2022/07/07 03:13:26;;;;;;;1.27;0.82;;;;;;;;;;5100592;28;20250;-58
2022/07/07 03:15:53;;;;;;;1.27;0.88;;;;;;;;;;5101025;28;20316;-57
2022/07/07 03:18:21;;;;;;;1.05;0.95;;;;;;;;;;5100253;28;20549;-57
2022/07/07 03:20:49;;;;;;;1.10;1.00;;;;;;;;;;5101201;28;20215;-57
2022/07/07 03:23:16;;;;;;;1.02;0.90;;;;;;;;;;5101333;28;20212;-58
2022/07/07 03:25:45;;;;;;;0.98;0.90;;;;;;;;;;5101412;28;20461;-58
2022/07/07 03:28:13;;;;;;;1.25;0.82;;;;;;;;;;5100530;28;20208;-58
2022/07/07 03:30:41;;;;;;;1.02;0.82;;;;;;;;;;5100925;28;20229;-58
2022/07/07 03:33:09;;;;;;;1.00;0.90;;;;;;;;;;5101112;28;20204;-59
2022/07/07 03:35:38;;;;;;;1.35;1.00;;;;;;;;;;5101034;28;20318;-59
2022/07/07 03:38:06;;;;;;;1.00;0.90;;;;;;;;;;5100430;28;20262;-58
2022/07/07 03:40:35;;;;;;;1.25;1.00;;;;;;;;;;5100619;28;20591;-58
2022/07/07 03:43:04;;;;;;;1.00;0.90;;;;;;;;;;5100650;28;20203;-58
2022/07/07 03:45:32;;;;;;;1.05;0.98;;;;;;;;;;5100276;28;20264;-58
2022/07/07 03:47:59;;;;;;;0.98;0.90;;;;;;;;;;5100443;28;20259;-58
2022/07/07 03:50:27;;;;;;;1.70;1.00;;;;;;;;;;5100256;28;20299;-58
2022/07/07 03:52:55;;;;;;;0.93;0.80;;;;;;;;;;5099944;28;20649;-59
2022/07/07 03:55:23;;;;;;;1.48;1.08;;;;;;;;;;5100040;28;20200;-58
2022/07/07 03:57:51;;;;;;;1.48;1.00;;;;;;;;;;5100248;28;20224;-58
2022/07/07 04:00:21;;;;;;;1.02;0.93;;;;;;;;;;5100143;28;20214;-58
2022/07/07 04:02:48;;;;;;;1.25;1.00;;;;;;;;;;5099799;28;20483;-59
2022/07/07 04:05:16;;;;;;;1.20;1.10;;;;;;;;;;5100121;28;20662;-58
2022/07/07 04:07:46;;;;;;;2.90;0.88;;;;;;;;;;5099992;28;20203;-58
2022/07/07 04:10:14;;;;;;;1.17;0.90;;;;;;;;;;5099962;28;20214;-58
2022/07/07 04:12:41;;;;;;;1.08;0.98;;;;;;;;;;5099081;28;20502;-58
2022/07/07 04:15:09;;;;;;;2.17;1.00;;;;;;;;;;5099520;28;20214;-57
2022/07/07 04:17:38;;;;;;;2.78;0.93;;;;;;;;;;5099365;28;20317;-58
2022/07/07 04:20:07;;;;;;;0.90;0.90;;;;;;;;;;5098295;28;20285;-58
2022/07/07 04:22:34;;;;;;;1.67;0.90;;;;;;;;;;5098773;28;20218;-58
2022/07/07 04:25:03;;;;;;;1.23;1.00;;;;;;;;;;5098455;28;20207;-58
2022/07/07 04:27:31;;;;;;;1.33;1.08;;;;;;;;;;5098549;28;20200;-58
2022/07/07 04:29:58;;;;;;;1.77;0.90;;;;;;;;;;5098552;28;20302;-58
2022/07/07 04:32:26;;;;;;;0.88;0.80;;;;;;;;;;5098335;28;20242;-58
2022/07/07 04:34:56;;;;;;;1.00;0.90;;;;;;;;;;5098354;28;20203;-57
2022/07/07 04:37:24;;;;;;;1.00;0.90;;;;;;;;;;5098722;28;20239;-58
2022/07/07 04:39:52;;;;;;;1.15;1.00;;;;;;;;;;5098497;28;20706;-58
2022/07/07 04:42:19;;;;;;;1.98;1.10;;;;;;;;;;5097527;28;20207;-59
2022/07/07 04:44:47;;;;;;;0.80;0.80;;;;;;;;;;5098185;28;20670;-59
2022/07/07 04:47:14;;;;;;;2.33;1.00;;;;;;;;;;5097840;28;20208;-58
2022/07/07 04:49:42;;;;;;;1.10;1.00;;;;;;;;;;5096725;28;20196;-59
2022/07/07 04:52:12;;;;;;;1.17;1.00;;;;;;;;;;5097430;28;20240;-59
2022/07/07 04:54:40;;;;;;;1.20;1.10;;;;;;;;;;5097173;28;20264;-58
2022/07/07 04:57:07;;;;;;;0.90;0.82;;;;;;;;;;5097097;28;20214;-59
2022/07/07 04:59:35;;;;;;;1.23;1.13;;;;;;;;;;5097497;28;20204;-58
2022/07/07 05:02:03;;;;;;;0.90;0.90;;;;;;;;;;5097219;28;20203;-58
2022/07/07 05:04:31;;;;;;;1.27;1.00;;;;;;;;;;5095825;28;20210;-58
2022/07/07 05:06:58;;;;;;;1.23;0.82;;;;;;;;;;5095581;28;20204;-58
2022/07/07 05:09:27;;;;;;;2.05;1.00;;;;;;;;;;5096325;28;20605;-58
2022/07/07 05:11:55;;;;;;;0.93;0.80;;;;;;;;;;5096413;28;20215;-58
2022/07/07 05:14:23;;;;;;;1.40;1.10;;;;;;;;;;5096174;28;20203;-58
2022/07/07 05:16:51;;;;;;;1.67;1.10;;;;;;;;;;5095671;28;20269;-58
2022/07/07 05:19:19;;;;;;;1.52;1.10;;;;;;;;;;5096438;28;20325;-59
2022/07/07 05:21:47;;;;;;;1.20;1.10;;;;;;;;;;5096645;28;20199;-58
2022/07/07 05:24:14;;;;;;;1.58;1.20;;;;;;;;;;5095974;28;20199;-58
2022/07/07 05:26:44;;;;;;;1.80;0.95;;;;;;;;;;5095988;28;20578;-57
2022/07/07 05:29:11;;;;;;;1.20;1.10;;;;;;;;;;5095759;28;20647;-59
2022/07/07 05:31:39;;;;;;;1.30;1.20;;;;;;;;;;5096043;28;20199;-58
2022/07/07 05:34:07;;;;;;;1.70;1.10;;;;;;;;;;5091172;28;20228;-59
2022/07/07 05:36:35;;;;;;;1.10;1.00;;;;;;;;;;5075083;28;20681;-59
2022/07/07 05:39:03;;;;;;;1.17;1.08;;;;;;;;;;5074440;28;20282;-58
2022/07/07 05:41:31;;;;;;;0.95;0.95;;;;;;;;;;5075399;28;20208;-58
2022/07/07 05:44:01;;;;;;;1.58;1.27;;;;;;;;;;5076723;28;20196;-59
2022/07/07 05:46:28;;;;;;;2.00;1.00;;;;;;;;;;5095550;28;20203;-59
2022/07/07 05:48:56;;;;;;;1.27;1.10;;;;;;;;;;5094710;28;20468;-58
2022/07/07 05:51:24;;;;;;;1.10;1.00;;;;;;;;;;5076209;28;20200;-58
2022/07/07 05:53:53;;;;;;;2.10;1.10;;;;;;;;;;5095032;28;20267;-58
2022/07/07 05:56:21;;;;;;;1.17;1.08;;;;;;;;;;5089253;28;20211;-58
2022/07/07 05:58:49;;;;;;;1.70;1.05;;;;;;;;;;5074024;28;20220;-58
2022/07/07 06:01:18;;;;;;;2.65;1.00;;;;;;;;;;5074954;28;20490;-59
2022/07/07 06:03:48;;;;;;;2.35;1.10;;;;;;;;;;5074696;28;20212;-59
2022/07/07 06:06:16;;;;;;;2.13;1.00;;;;;;;;;;5075017;28;20196;-59
2022/07/07 06:08:44;;;;;;;1.30;1.20;;;;;;;;;;5075159;28;20200;-59
2022/07/07 06:11:12;;;;;;;1.70;1.25;;;;;;;;;;5079564;28;20269;-59
2022/07/07 06:13:39;;;;;;;1.95;1.27;;;;;;;;;;5095685;28;20210;-59
2022/07/07 06:16:08;;;;;;;1.65;1.13;;;;;;;;;;5095017;28;20234;-59
2022/07/07 06:18:37;;;;;;;1.30;1.20;;;;;;;;;;5094970;28;20574;-59
2022/07/07 06:21:04;;;;;;;2.92;1.20;;;;;;;;;;5094872;28;20199;-59
2022/07/07 06:23:32;;;;;;;1.33;1.20;;;;;;;;;;5095712;28;20207;-59
2022/07/07 06:26:02;;;;;;;1.38;1.27;;;;;;;;;;5094727;28;20237;-59
2022/07/07 06:28:30;;;;;;;2.78;1.30;;;;;;;;;;5094910;28;20223;-59
2022/07/07 06:30:58;;;;;;;3.00;1.33;;;;;;;;;;5095279;28;20207;-59
2022/07/07 06:33:25;;;;;;;1.30;1.20;;;;;;;;;;5094290;28;20204;-59
2022/07/07 06:35:55;;;;;;;1.75;1.27;;;;;;;;;;5095198;28;20623;-59
2022/07/07 06:38:23;;;;;;;1.95;1.40;;;;;;;;;;5094453;28;20233;-59
2022/07/07 06:40:51;;;;;;;1.95;1.30;;;;;;;;;;5092943;28;20192;-59
2022/07/07 06:43:19;;;;;;;1.35;1.25;;;;;;;;;;5096999;28;20203;-59
2022/07/07 06:45:47;;;;;;;1.17;1.10;;;;;;;;;;5098870;28;20236;-58
2022/07/07 06:48:14;;;;;;;1.30;1.20;;;;;;;;;;5099009;28;20288;-59
2022/07/07 06:50:42;;;;;;;1.40;1.30;;;;;;;;;;5098568;28;20203;-59
2022/07/07 06:53:11;;;;;;;1.90;1.33;;;;;;;;;;5097908;28;20243;-59
2022/07/07 06:55:39;;;;;;;1.50;1.40;;;;;;;;;;5097636;28;20275;-59
2022/07/07 06:58:09;;;;;;;1.40;1.27;;;;;;;;;;5098241;28;20246;-59
2022/07/07 07:00:37;;;;;;;1.48;1.38;;;;;;;;;;5098436;28;20206;-59
2022/07/07 07:03:05;;;;;;;1.67;1.17;;;;;;;;;;5098060;28;20292;-58
2022/07/07 07:05:32;;;;;;;1.58;1.40;;;;;;;;;;5098881;28;20213;-59
2022/07/07 07:08:00;;;;;;;1.60;1.50;;;;;;;;;;5098159;28;20196;-59
2022/07/07 07:10:29;;;;;;;1.98;1.58;;;;;;;;;;5098792;28;20269;-59
2022/07/07 07:12:57;;;;;;;1.30;1.20;;;;;;;;;;5098542;28;20229;-60
2022/07/07 07:15:25;;;;;;;1.95;1.38;;;;;;;;;;5098684;28;20196;-59
2022/07/07 07:17:53;;;;;;;1.52;1.42;;;;;;;;;;5098240;28;20202;-58
2022/07/07 07:20:21;;;;;;;1.90;1.48;;;;;;;;;;5098133;28;20196;-59
2022/07/07 07:22:48;;;;;;;1.50;1.40;;;;;;;;;;5098098;28;20207;-59
2022/07/07 07:25:17;;;;;;;1.88;1.73;;;;;;;;;;5097740;28;20299;-59
2022/07/07 07:27:46;;;;;;;1.60;1.50;;;;;;;;;;5097895;28;20203;-59
2022/07/07 07:30:15;;;;;;;1.48;1.38;;;;;;;;;;5098244;28;20208;-58
2022/07/07 07:32:43;;;;;;;2.13;1.50;;;;;;;;;;5097947;28;20200;-59
2022/07/07 07:35:11;;;;;;;1.50;1.40;;;;;;;;;;5096817;28;20603;-58
2022/07/07 07:37:39;;;;;;;1.98;1.60;;;;;;;;;;5098302;28;20267;-59
2022/07/07 07:40:08;;;;;;;1.60;1.50;;;;;;;;;;5098153;28;20362;-58
2022/07/07 07:42:36;;;;;;;2.08;1.80;;;;;;;;;;5098606;28;20203;-58
2022/07/07 07:45:13;;;;;;;2.97;1.85;;;;;;;;;;5098161;28;20214;-58
2022/07/07 07:47:42;;;;;;;2.00;1.70;;;;;;;;;;5097936;28;20284;-58
2022/07/07 07:50:12;;;;;;;1.70;1.58;;;;;;;;;;5091229;28;20707;-58
2022/07/07 07:52:39;;;;;;;2.53;1.60;;;;;;;;;;5077283;28;20232;-58
2022/07/07 07:55:08;;;;;;;3.20;1.95;;;;;;;;;;5076929;28;20196;-59
2022/07/07 07:57:36;;;;;;;2.47;1.88;;;;;;;;;;5077458;28;20212;-58
2022/07/07 08:00:07;;;;;;;3.25;2.00;;;;;;;;;;5078000;28;20231;-58
2022/07/07 08:02:35;;;;;;;2.30;1.80;;;;;;;;;;5092847;28;20203;-58
2022/07/07 08:05:02;;;;;;;2.25;1.95;;;;;;;;;;5098327;28;20204;-58
2022/07/07 08:07:32;;;;;;;2.10;1.77;;;;;;;;;;5097827;28;20204;-58
2022/07/07 08:10:00;;;;;;;1.52;1.42;;;;;;;;;;5097338;28;20210;-58
2022/07/07 08:12:27;;;;;;;2.25;2.00;;;;;;;;;;5098051;28;20204;-59
2022/07/07 08:14:56;;;;;;;1.85;1.75;;;;;;;;;;5098015;28;20199;-58
2022/07/07 08:17:25;;;;;;;2.17;1.92;;;;;;;;;;5097292;28;20211;-59
2022/07/07 08:19:53;;;;;;;2.17;2.00;;;;;;;;;;5098235;28;21152;-58
2022/07/07 08:22:21;;;;;;;2.20;2.00;;;;;;;;;;5097956;28;20814;-58
2022/07/07 08:24:49;;;;;;;1.98;1.80;;;;;;;;;;5097060;28;20211;-58
2022/07/07 08:27:16;;;;;;;2.58;2.10;;;;;;;;;;5097666;28;20199;-58
2022/07/07 08:29:44;;;;;;;1.70;1.60;;;;;;;;;;5097607;28;20578;-59
2022/07/07 08:32:14;;;;;;;2.78;1.92;;;;;;;;;;5097090;28;20203;-58
2022/07/07 08:34:43;;;;;;;2.08;1.95;;;;;;;;;;5097720;28;20287;-58
2022/07/07 08:37:11;;;;;;;1.98;1.88;;;;;;;;;;5097390;28;20203;-59
2022/07/07 08:39:38;;;;;;;2.28;2.08;;;;;;;;;;5097200;28;20223;-58
2022/07/07 08:42:06;;;;;;;2.58;1.95;;;;;;;;;;5096264;28;20203;-58
2022/07/07 08:44:34;;;;;;;2.22;2.00;;;;;;;;;;5096037;28;20195;-58
2022/07/07 08:47:03;;;;;;;2.30;2.03;;;;;;;;;;5097265;28;20211;-58
2022/07/07 08:49:31;;;;;;;2.08;1.80;;;;;;;;;;5095949;28;20231;-59
2022/07/07 08:52:00;;;;;;;2.30;2.10;;;;;;;;;;5095950;28;20895;-59
2022/07/07 08:54:28;;;;;;;2.05;1.70;;;;;;;;;;5095588;28;20269;-59
2022/07/07 08:56:57;;;;;;;1.95;1.83;;;;;;;;;;5096331;28;20200;-58
2022/07/07 08:59:24;;;;;;;2.45;2.25;;;;;;;;;;5095869;28;20219;-58
2022/07/07 09:01:55;;;;;;;2.15;1.80;;;;;;;;;;5096306;28;20204;-59
2022/07/07 09:04:23;;;;;;;2.25;1.90;;;;;;;;;;5096423;28;20200;-59
2022/07/07 09:06:54;;;;;;;2.20;1.98;;;;;;;;;;5096631;28;20195;-60
2022/07/07 09:09:30;;;;;;;2.22;1.90;;;;;;;;;;5094737;28;20204;-59
2022/07/07 09:12:02;;;;;;;2.20;2.00;;;;;;;;;;5096048;28;20659;-58
2022/07/07 09:14:36;;;;;;;2.10;1.85;;;;;;;;;;5096512;28;20203;-60
2022/07/07 09:17:03;;;;;;;1.85;1.75;;;;;;;;;;5096795;28;20552;-59
2022/07/07 09:19:31;;;;;;;2.17;2.08;;;;;;;;;;5096350;28;20223;-59
2022/07/07 09:21:59;;;;;;;1.90;1.70;;;;;;;;;;5096075;28;20195;-58
2022/07/07 09:24:26;;;;;;;2.25;1.90;;;;;;;;;;5095622;28;20203;-59
2022/07/07 09:26:55;;;;;;;2.05;1.95;;;;;;;;;;5096836;28;20590;-59
2022/07/07 09:29:24;;;;;;;2.40;2.15;;;;;;;;;;5096601;28;20207;-59
2022/07/07 09:31:55;;;;;;;2.17;2.00;;;;;;;;;;5095815;28;20210;-59
2022/07/07 09:34:25;;;;;;;2.28;2.00;;;;;;;;;;5095834;28;20203;-58
2022/07/07 09:39:45;;;;;;;2.45;2.25;;;;;;;;;;5095225;28;20219;-58
2022/07/07 09:42:24;;;;;;;2.70;2.50;;;;;;;;;;5095587;28;20237;-58
2022/07/07 09:44:53;;;;;;;2.35;2.15;;;;;;;;;;5096216;28;20539;-58
2022/07/07 09:47:22;;;;;;;2.40;2.20;;;;;;;;;;5095866;28;20204;-58
2022/07/07 09:50:00;;;;;;;2.40;2.20;;;;;;;;;;5095815;28;20571;-57
2022/07/07 09:52:28;;;;;;;3.92;2.50;;;;;;;;;;5094882;28;20322;-57
2022/07/07 09:54:56;;;;;;;2.42;2.22;;;;;;;;;;5096321;28;20461;-58
2022/07/07 09:57:27;;;;;;;2.40;2.20;;;;;;;;;;5095016;28;20309;-58
2022/07/07 09:59:56;;;;;;;2.88;2.60;;;;;;;;;;5095525;28;20231;-58
2022/07/07 10:02:25;;;;;;;2.53;2.38;;;;;;;;;;5095292;28;20200;-57
2022/07/07 10:04:53;;;;;;;2.40;2.30;;;;;;;;;;5095275;28;20200;-58
2022/07/07 10:07:21;;;;;;;2.75;2.55;;;;;;;;;;5094826;28;20539;-58
2022/07/07 10:09:54;;;;;;;2.42;2.22;;;;;;;;;;5095429;28;20200;-59
2022/07/07 10:12:23;;;;;;;2.63;2.40;;;;;;;;;;5094614;28;20288;-58
2022/07/07 10:15:01;;;;;;;2.83;2.63;;;;;;;;;;5095260;28;20302;-58
2022/07/07 10:17:30;;;;;;;2.80;2.50;;;;;;;;;;5094644;28;20199;-59
2022/07/07 10:19:59;;;;;;;2.50;2.30;;;;;;;;;;5094886;28;20255;-58
2022/07/07 10:22:28;;;;;;;2.58;2.33;;;;;;;;;;5095037;28;20203;-57
2022/07/07 10:24:56;;;;;;;2.75;2.55;;;;;;;;;;5094320;28;20207;-60
2022/07/07 10:27:26;;;;;;;3.30;2.30;;;;;;;;;;5094798;28;20207;-58
2022/07/07 10:29:55;;;;;;;3.40;2.70;;;;;;;;;;5095289;28;20541;-59
2022/07/07 10:32:32;;;;;;;2.70;2.50;;;;;;;;;;5094311;28;20649;-58
2022/07/07 10:35:02;;;;;;;2.58;2.38;;;;;;;;;;5095163;28;20195;-58
2022/07/07 10:37:29;;;;;;;2.60;2.40;;;;;;;;;;5094820;28;20204;-59
2022/07/07 10:39:58;;;;;;;2.92;2.67;;;;;;;;;;5094918;28;20223;-58
2022/07/07 10:42:36;;;;;;;2.60;2.40;;;;;;;;;;5094729;28;20229;-58
2022/07/07 10:45:07;;;;;;;2.30;2.13;;;;;;;;;;5094883;28;20200;-58
2022/07/07 10:47:37;;;;;;;2.13;2.03;;;;;;;;;;5094734;28;20238;-58
2022/07/07 10:50:05;;;;;;;2.72;2.40;;;;;;;;;;5095100;28;20211;-58
2022/07/07 10:52:41;;;;;;;2.40;2.20;;;;;;;;;;5093005;28;20269;-59
2022/07/07 10:55:09;;;;;;;2.65;2.45;;;;;;;;;;5093415;28;20211;-58
2022/07/07 10:57:41;;;;;;;2.50;2.30;;;;;;;;;;5094580;28;20294;-58
2022/07/07 11:00:18;;;;;;;2.22;2.03;;;;;;;;;;5094353;28;20227;-57
2022/07/07 11:02:47;;;;;;;2.40;2.20;;;;;;;;;;5093410;28;20206;-57
2022/07/07 11:05:34;;;;;;;2.60;2.40;;;;;;;;;;5093597;28;20207;-58
2022/07/07 11:08:11;;;;;;;2.53;2.33;;;;;;;;;;5094234;28;20622;-59
2022/07/07 11:10:54;;;;;;;3.63;2.47;;;;;;;;;;5093097;28;20263;-60
2022/07/07 11:13:23;;;;;;;2.83;2.63;;;;;;;;;;5089021;28;20660;-60
2022/07/07 11:15:54;;;;;;;2.60;2.40;;;;;;;;;;5093327;28;20288;-59
2022/07/07 11:18:21;;;;;;;3.40;2.55;;;;;;;;;;5093834;28;20239;-61
2022/07/07 11:20:53;;;;;;;2.53;2.20;;;;;;;;;;5093438;28;20263;-58
2022/07/07 11:23:20;;;;;;;2.22;2.13;;;;;;;;;;5093130;28;20207;-59
2022/07/07 11:25:51;;;;;;;2.42;2.30;;;;;;;;;;5093753;28;20196;-59
2022/07/07 11:28:19;;;;;;;2.30;2.10;;;;;;;;;;5095395;28;20203;-59
2022/07/07 11:30:46;;;;;;;2.28;2.17;;;;;;;;;;5097470;28;20231;-59
2022/07/07 11:33:15;;;;;;;2.20;2.00;;;;;;;;;;5096278;28;20253;-59
2022/07/07 11:35:44;;;;;;;2.60;2.40;;;;;;;;;;5096768;28;20207;-60
2022/07/07 11:38:12;;;;;;;2.30;2.10;;;;;;;;;;5097306;28;20300;-59
2022/07/07 11:40:41;;;;;;;2.08;1.98;;;;;;;;;;5096271;28;20231;-59
2022/07/07 11:43:08;;;;;;;2.60;2.40;;;;;;;;;;5097089;28;20211;-59
2022/07/07 11:45:39;;;;;;;2.15;2.05;;;;;;;;;;5096874;28;20247;-59
2022/07/07 11:48:07;;;;;;;2.83;2.53;;;;;;;;;;5096424;28;20207;-59
2022/07/07 11:50:37;;;;;;;2.20;2.10;;;;;;;;;;5097131;28;20304;-60
2022/07/07 11:53:05;;;;;;;2.70;2.50;;;;;;;;;;5096479;28;20234;-59
2022/07/07 11:55:34;;;;;;;3.00;2.80;;;;;;;;;;5096274;28;20218;-59
2022/07/07 11:58:02;;;;;;;3.17;2.95;;;;;;;;;;5096830;28;20242;-60
2022/07/07 12:00:30;;;;;;;3.00;2.80;;;;;;;;;;5096623;28;20310;-61
2022/07/07 12:02:58;;;;;;;3.10;2.90;;;;;;;;;;5096584;28;20295;-60
2022/07/07 12:05:26;;;;;;;2.90;2.70;;;;;;;;;;5096451;28;20206;-58
2022/07/07 12:07:56;;;;;;;3.25;3.00;;;;;;;;;;5096544;28;20212;-60
2022/07/07 12:10:27;;;;;;;3.05;2.85;;;;;;;;;;5095668;28;20231;-61
2022/07/07 12:12:58;;;;;;;3.10;2.90;;;;;;;;;;5095192;28;20205;-60
2022/07/07 12:15:28;;;;;;;3.20;3.00;;;;;;;;;;5095255;28;20230;-59
2022/07/07 12:17:56;;;;;;;3.50;3.30;;;;;;;;;;5096363;28;20202;-60
2022/07/07 12:20:23;;;;;;;3.70;3.40;;;;;;;;;;5096833;28;20259;-59
2022/07/07 12:22:57;;;;;;;3.40;3.20;;;;;;;;;;5096580;28;20571;-59
2022/07/07 12:25:25;;;;;;;3.63;3.33;;;;;;;;;;5096947;28;20223;-60
2022/07/07 12:27:59;;;;;;;3.60;3.30;;;;;;;;;;5096351;28;20671;-60
2022/07/07 12:30:27;;;;;;;3.75;3.45;;;;;;;;;;5096742;28;20214;-59
2022/07/07 12:32:55;;;;;;;3.95;3.47;;;;;;;;;;5095630;28;20310;-59
2022/07/07 12:35:30;;;;;;;3.47;3.17;;;;;;;;;;5096675;28;20257;-58
2022/07/07 12:38:00;;;;;;;4.07;3.63;;;;;;;;;;5096068;28;20217;-59
2022/07/07 12:40:28;;;;;;;3.40;3.10;;;;;;;;;;5094987;28;20288;-61
2022/07/07 12:42:56;;;;;;;3.65;3.35;;;;;;;;;;5095840;28;20641;-58
2022/07/07 12:45:23;;;;;;;3.70;3.40;;;;;;;;;;5096507;28;20291;-61
2022/07/07 12:47:52;;;;;;;3.33;2.92;;;;;;;;;;5094934;28;20238;-61
2022/07/07 12:50:20;;;;;;;3.25;3.05;;;;;;;;;;5094977;28;20247;-61
2022/07/07 12:53:00;;;;;;;3.50;3.20;;;;;;;;;;5095068;28;20263;-60
2022/07/07 12:55:37;;;;;;;3.35;3.15;;;;;;;;;;5095504;28;20227;-59
2022/07/07 12:58:22;;;;;;;3.55;3.35;;;;;;;;;;5094562;28;20273;-59
2022/07/07 13:01:02;;;;;;;3.30;3.10;;;;;;;;;;5094672;28;20234;-61
2022/07/07 13:03:30;;;;;;;3.38;3.10;;;;;;;;;;5094442;28;20247;-59
2022/07/07 13:05:59;;;;;;;3.47;3.17;;;;;;;;;;5094771;28;20583;-61
2022/07/07 13:08:28;;;;;;;2.97;2.78;;;;;;;;;;5095639;28;20199;-60
2022/07/07 13:10:55;;;;;;;3.17;2.97;;;;;;;;;;5095069;28;20575;-58
2022/07/07 13:13:23;;;;;;;3.22;3.03;;;;;;;;;;5095848;28;20231;-59
2022/07/07 13:15:50;;;;;;;3.47;3.17;;;;;;;;;;5095512;28;20215;-57
2022/07/07 13:18:20;;;;;;;3.65;3.35;;;;;;;;;;5096157;28;20235;-58
2022/07/07 13:20:48;;;;;;;3.47;3.28;;;;;;;;;;5095674;28;20220;-60
2022/07/07 13:23:15;;;;;;;3.40;3.20;;;;;;;;;;5095314;28;20257;-60
2022/07/07 13:25:44;;;;;;;3.22;3.03;;;;;;;;;;5094785;28;20257;-60
2022/07/07 13:28:12;;;;;;;3.20;3.00;;;;;;;;;;5095441;28;20236;-60
2022/07/07 13:30:40;;;;;;;3.20;3.00;;;;;;;;;;5093695;28;20203;-61
2022/07/07 13:33:07;;;;;;;3.33;3.13;;;;;;;;;;5094843;28;20207;-59
2022/07/07 13:35:35;;;;;;;3.35;3.15;;;;;;;;;;5094728;28;20211;-59
2022/07/07 13:38:05;;;;;;;3.33;3.13;;;;;;;;;;5094445;28;20200;-60
2022/07/07 13:40:33;;;;;;;3.05;2.90;;;;;;;;;;5094120;28;20292;-60
2022/07/07 13:43:02;;;;;;;3.30;3.10;;;;;;;;;;5094620;28;20211;-61
2022/07/07 13:45:29;;;;;;;3.60;3.40;;;;;;;;;;5093688;28;20306;-61
2022/07/07 13:47:57;;;;;;;3.13;2.92;;;;;;;;;;5094551;28;20269;-61
2022/07/07 13:50:24;;;;;;;3.20;3.00;;;;;;;;;;5095074;28;20195;-60
2022/07/07 13:52:52;;;;;;;3.42;3.22;;;;;;;;;;5094059;28;20246;-61
2022/07/07 13:55:20;;;;;;;3.50;3.30;;;;;;;;;;5094172;28;20242;-61
2022/07/07 13:57:48;;;;;;;3.83;3.53;;;;;;;;;;5094814;28;20199;-60
2022/07/07 14:00:17;;;;;;;3.83;3.53;;;;;;;;;;5094455;28;20206;-61
2022/07/07 14:02:46;;;;;;;3.40;3.20;;;;;;;;;;5094256;28;20196;-61
2022/07/07 14:05:14;;;;;;;4.13;3.80;;;;;;;;;;5093429;28;20247;-60
2022/07/07 14:07:42;;;;;;;3.80;3.50;;;;;;;;;;5094347;28;20214;-61
2022/07/07 14:10:10;;;;;;;3.47;3.28;;;;;;;;;;5090675;28;20211;-60
2022/07/07 14:12:38;;;;;;;3.50;3.30;;;;;;;;;;5092032;28;20210;-60
2022/07/07 14:15:06;;;;;;;4.03;3.50;;;;;;;;;;5090035;28;20229;-60
2022/07/07 14:17:36;;;;;;;3.50;3.30;;;;;;;;;;5088251;28;20203;-61
2022/07/07 14:20:04;;;;;;;3.75;3.55;;;;;;;;;;5089502;28;20265;-61
2022/07/07 14:22:31;;;;;;;5.45;3.35;;;;;;;;;;5089339;28;20223;-61
2022/07/07 14:24:59;;;;;;;3.63;3.42;;;;;;;;;;5091274;28;20204;-60
2022/07/07 14:27:27;;;;;;;3.80;3.58;;;;;;;;;;5091194;28;20509;-61
2022/07/07 14:29:55;;;;;;;3.80;3.50;;;;;;;;;;5091533;28;20681;-61
2022/07/07 14:32:23;;;;;;;3.53;3.28;;;;;;;;;;5092416;28;20200;-61
2022/07/07 14:34:52;;;;;;;4.40;4.10;;;;;;;;;;5092065;28;20196;-61
2022/07/07 14:37:19;;;;;;;4.10;3.80;;;;;;;;;;5091284;28;20456;-61
2022/07/07 14:39:47;;;;;;;4.22;4.00;;;;;;;;;;5090887;28;20205;-60
2022/07/07 14:42:15;;;;;;;4.50;4.20;;;;;;;;;;5092133;28;20223;-61
2022/07/07 14:44:44;;;;;;;4.10;3.75;;;;;;;;;;5091829;28;20265;-60
2022/07/07 14:47:12;;;;;;;4.50;4.10;;;;;;;;;;5090562;28;20231;-61
2022/07/07 14:49:39;;;;;;;4.25;3.95;;;;;;;;;;5091560;28;20195;-60
2022/07/07 14:52:09;;;;;;;4.20;3.90;;;;;;;;;;5089950;28;20266;-61
2022/07/07 14:54:36;;;;;;;4.20;3.90;;;;;;;;;;5092165;28;20212;-60